Time;durP1;ratioP1;P1;durP2;ratioP2;P2;SDS_P1;SDS_P2;PMS_P1;PMS_P2;Temp;Humidity;BMP_temperature;BMP_pressure;BME280_temperature;BME280_humidity;BME280_pressure;Samples;Min_cycle;Max_cycle;Signal;HPM_P1;HPM_P2
2021/07/13 00:00:10;;;;;;;7.60;6.97;;;20.00;99.90;;;;;;5016040;28;20523;-57
2021/07/13 00:02:38;;;;;;;8.00;7.40;;;20.00;99.90;;;;;;5017088;28;20464;-58
2021/07/13 00:05:12;;;;;;;8.20;7.40;;;20.00;99.90;;;;;;5000573;28;20780;-57
2021/07/13 00:07:43;;;;;;;7.70;7.10;;;20.00;99.90;;;;;;5009296;28;20574;-54
2021/07/13 00:10:11;;;;;;;7.60;6.90;;;20.00;99.90;;;;;;5016167;28;20550;-57
2021/07/13 00:12:41;;;;;;;8.60;8.00;;;20.00;99.90;;;;;;5015656;28;20476;-55
2021/07/13 00:15:10;;;;;;;7.17;6.57;;;20.00;99.90;;;;;;5013552;28;20549;-56
2021/07/13 00:17:39;;;;;;;8.77;7.50;;;20.00;99.90;;;;;;5017262;28;20472;-57
2021/07/13 00:20:11;;;;;;;8.23;7.23;;;20.00;99.90;;;;;;5016846;28;20534;-55
2021/07/13 00:22:39;;;;;;;9.83;7.83;;;20.00;99.90;;;;;;5014535;28;20757;-57
2021/07/13 00:25:07;;;;;;;8.10;7.43;;;20.00;99.90;;;;;;5016801;28;20656;-54
2021/07/13 00:27:34;;;;;;;8.83;8.00;;;20.00;99.90;;;;;;5016972;28;20471;-58
2021/07/13 00:30:02;;;;;;;7.93;7.23;;;20.00;99.90;;;;;;5016586;28;20848;-56
2021/07/13 00:32:29;;;;;;;9.80;8.07;;;20.00;99.90;;;;;;5017701;28;20525;-53
2021/07/13 00:34:57;;;;;;;8.27;7.50;;;19.90;99.90;;;;;;5017457;28;20479;-54
2021/07/13 00:37:24;;;;;;;8.63;7.97;;;19.90;99.90;;;;;;5017100;28;20467;-55
2021/07/13 00:39:54;;;;;;;7.40;6.80;;;20.00;99.90;;;;;;5012071;28;20503;-54
2021/07/13 00:42:21;;;;;;;8.57;7.80;;;20.00;99.90;;;;;;5017061;28;20472;-52
2021/07/13 00:44:51;;;;;;;7.90;7.40;;;19.90;99.90;;;;;;5017488;28;20471;-56
2021/07/13 00:47:20;;;;;;;8.27;7.47;;;19.90;99.90;;;;;;5017050;28;20583;-54
2021/07/13 00:49:47;;;;;;;8.77;7.97;;;19.90;99.90;;;;;;5016907;28;20517;-56
2021/07/13 00:52:16;;;;;;;8.63;7.93;;;19.80;99.90;;;;;;5017138;28;20475;-54
2021/07/13 00:54:50;;;;;;;8.23;7.63;;;19.80;99.90;;;;;;5017134;28;20716;-57
2021/07/13 00:57:22;;;;;;;8.27;7.67;;;19.80;99.90;;;;;;5017931;28;20471;-56
2021/07/13 00:59:49;;;;;;;8.97;8.07;;;19.80;99.90;;;;;;5020671;28;20500;-55
2021/07/13 01:02:17;;;;;;;9.17;8.37;;;19.80;99.90;;;;;;5020085;28;20522;-56
2021/07/13 01:04:49;;;;;;;8.67;7.77;;;19.80;99.90;;;;;;5019108;28;20587;-57
2021/07/13 01:07:30;;;;;;;9.40;8.60;;;19.80;99.90;;;;;;5004537;28;20990;-56
2021/07/13 01:10:02;;;;;;;8.53;7.83;;;19.80;99.90;;;;;;5011592;28;20459;-57
2021/07/13 01:12:38;;;;;;;7.87;7.10;;;19.80;99.90;;;;;;5014052;28;20869;-55
2021/07/13 01:15:07;;;;;;;8.50;7.70;;;19.80;99.90;;;;;;5018293;28;20467;-54
2021/07/13 01:17:40;;;;;;;9.30;8.40;;;19.70;99.90;;;;;;5017246;28;20470;-54
2021/07/13 01:20:44;;;;;;;9.00;8.30;;;19.70;99.90;;;;;;5020485;28;20500;-52
2021/07/13 01:23:25;;;;;;;8.80;8.10;;;19.70;99.90;;;;;;5019946;28;20463;-52
2021/07/13 01:26:04;;;;;;;9.00;8.13;;;19.70;99.90;;;;;;5017530;28;20518;-55
2021/07/13 01:28:36;;;;;;;8.87;8.07;;;19.70;99.90;;;;;;5020423;28;20463;-51
2021/07/13 01:31:06;;;;;;;10.60;7.67;;;19.70;99.90;;;;;;5019250;28;20467;-53
2021/07/13 01:33:34;;;;;;;8.77;7.97;;;19.60;99.90;;;;;;5020340;28;20554;-53
2021/07/13 01:36:05;;;;;;;7.57;6.87;;;19.60;99.90;;;;;;5020564;28;20467;-56
2021/07/13 01:38:38;;;;;;;8.47;7.77;;;19.60;99.90;;;;;;5013961;28;20460;-55
2021/07/13 01:41:09;;;;;;;9.83;7.73;;;19.60;99.90;;;;;;5009475;28;20465;-53
2021/07/13 01:43:40;;;;;;;9.60;8.60;;;19.60;99.90;;;;;;5019867;28;20507;-55
2021/07/13 01:46:08;;;;;;;8.27;7.47;;;19.60;99.90;;;;;;5019619;28;20478;-52
2021/07/13 01:48:38;;;;;;;8.47;7.63;;;19.60;99.90;;;;;;5019438;28;20475;-56
2021/07/13 01:51:09;;;;;;;8.73;7.73;;;19.60;99.90;;;;;;5019507;28;20775;-56
2021/07/13 01:53:38;;;;;;;9.43;8.63;;;19.60;99.90;;;;;;5019670;28;20942;-52
2021/07/13 01:56:06;;;;;;;7.63;7.03;;;19.50;99.90;;;;;;5019673;28;20478;-55
2021/07/13 01:58:40;;;;;;;8.60;8.00;;;19.50;99.90;;;;;;5018965;28;20493;-55
2021/07/13 02:01:12;;;;;;;8.90;8.20;;;19.50;99.90;;;;;;5019393;28;20446;-52
2021/07/13 02:03:44;;;;;;;8.53;7.70;;;19.60;99.90;;;;;;5010653;28;20566;-53
2021/07/13 02:06:13;;;;;;;8.60;7.90;;;19.60;99.90;;;;;;5002796;28;20512;-56
2021/07/13 02:08:40;;;;;;;8.60;7.50;;;19.50;99.90;;;;;;5012782;28;20465;-53
2021/07/13 02:11:09;;;;;;;9.70;8.90;;;19.60;99.90;;;;;;5017456;28;20515;-55
2021/07/13 02:13:37;;;;;;;9.30;8.13;;;19.60;99.90;;;;;;5013924;28;20460;-53
2021/07/13 02:16:06;;;;;;;9.30;8.50;;;19.60;99.90;;;;;;5018767;28;20900;-56
2021/07/13 02:18:34;;;;;;;9.57;8.83;;;19.60;99.90;;;;;;5018761;28;20468;-49
2021/07/13 02:21:01;;;;;;;8.60;7.80;;;19.70;99.90;;;;;;5017811;28;20526;-54
2021/07/13 02:23:28;;;;;;;8.57;7.87;;;19.60;99.90;;;;;;5018069;28;20893;-55
2021/07/13 02:25:58;;;;;;;13.43;8.30;;;19.60;99.90;;;;;;5018582;28;20526;-55
2021/07/13 02:28:30;;;;;;;9.30;8.53;;;19.60;99.90;;;;;;5018981;28;20468;-56
2021/07/13 02:31:02;;;;;;;8.90;8.10;;;19.60;99.90;;;;;;5018337;28;20486;-53
2021/07/13 02:33:39;;;;;;;7.73;7.03;;;19.60;99.90;;;;;;5019016;28;20483;-54
2021/07/13 02:36:13;;;;;;;9.33;8.40;;;19.60;99.90;;;;;;5018730;28;20504;-56
2021/07/13 02:38:41;;;;;;;10.87;8.50;;;19.60;99.90;;;;;;5014880;28;20808;-56
2021/07/13 02:41:10;;;;;;;8.47;7.23;;;19.60;99.90;;;;;;5018437;28;20514;-56
2021/07/13 02:43:39;;;;;;;8.03;7.43;;;19.60;99.90;;;;;;5018874;28;20460;-57
2021/07/13 02:46:07;;;;;;;7.97;7.23;;;19.60;99.90;;;;;;5018253;28;20464;-53
2021/07/13 02:48:38;;;;;;;9.70;8.90;;;19.50;99.90;;;;;;5018708;28;20464;-52
2021/07/13 02:51:08;;;;;;;8.60;7.90;;;19.50;99.90;;;;;;5018863;28;20470;-53
2021/07/13 02:53:36;;;;;;;7.67;6.70;;;19.50;99.90;;;;;;5018763;28;20522;-54
2021/07/13 02:56:06;;;;;;;9.63;8.73;;;19.50;99.90;;;;;;5018437;28;20464;-53
2021/07/13 02:58:34;;;;;;;8.10;7.50;;;19.50;99.90;;;;;;5018689;28;20507;-53
2021/07/13 03:01:02;;;;;;;9.83;8.83;;;19.50;99.90;;;;;;5016985;28;20495;-56
2021/07/13 03:03:28;;;;;;;10.07;9.10;;;19.40;99.90;;;;;;5009962;28;21369;-54
2021/07/13 03:05:58;;;;;;;8.60;7.80;;;19.40;99.90;;;;;;5015228;28;20503;-56
2021/07/13 03:08:27;;;;;;;9.90;9.10;;;19.30;99.90;;;;;;5017634;28;20464;-51
2021/07/13 03:10:58;;;;;;;9.47;8.60;;;19.30;99.90;;;;;;5016477;28;20474;-58
2021/07/13 03:13:25;;;;;;;9.40;8.60;;;19.30;99.90;;;;;;5006424;28;20465;-56
2021/07/13 03:15:53;;;;;;;8.90;8.17;;;19.20;99.90;;;;;;5016497;28;20514;-58
2021/07/13 03:18:23;;;;;;;8.20;7.60;;;19.10;99.90;;;;;;5016731;28;20739;-59
2021/07/13 03:20:53;;;;;;;9.27;8.57;;;19.20;99.90;;;;;;5016827;28;20882;-60
2021/07/13 03:23:23;;;;;;;9.40;8.70;;;19.20;99.90;;;;;;5011988;28;20465;-61
2021/07/13 03:25:51;;;;;;;9.23;8.33;;;19.10;99.90;;;;;;5018286;28;20554;-61
2021/07/13 03:28:19;;;;;;;9.57;8.70;;;19.10;99.90;;;;;;5017955;28;20763;-60
2021/07/13 03:30:47;;;;;;;9.07;8.17;;;19.10;99.90;;;;;;5017410;28;20456;-60
2021/07/13 03:33:15;;;;;;;8.73;8.03;;;19.00;99.90;;;;;;5017918;28;20443;-59
2021/07/13 03:35:43;;;;;;;9.40;8.60;;;19.00;99.90;;;;;;5017970;28;20518;-59
2021/07/13 03:38:11;;;;;;;8.80;8.00;;;19.00;99.90;;;;;;5017800;28;20885;-59
2021/07/13 04:19:26;;;;;;;10.30;9.50;;;18.70;99.90;;;;;;4122452;23;20582;-61
2021/07/13 04:21:52;;;;;;;9.80;9.00;;;18.70;99.90;;;;;;5017811;28;20456;-61
2021/07/13 04:24:19;;;;;;;8.90;8.20;;;18.70;99.90;;;;;;5024138;28;20459;-62
2021/07/13 04:26:46;;;;;;;11.10;10.10;;;18.70;99.90;;;;;;5017791;28;20464;-61
2021/07/13 04:29:14;;;;;;;10.07;9.17;;;18.70;99.90;;;;;;5017494;28;20534;-60
2021/07/13 04:31:41;;;;;;;11.17;10.07;;;18.80;99.90;;;;;;5038303;28;20871;-60
2021/07/13 04:34:09;;;;;;;10.10;9.27;;;18.80;99.90;;;;;;5040893;28;20528;-60
2021/07/13 04:36:39;;;;;;;9.97;9.07;;;18.80;99.90;;;;;;5041046;28;20561;-60
2021/07/13 04:39:09;;;;;;;10.10;9.30;;;18.80;99.90;;;;;;5021639;28;20766;-59
2021/07/13 04:41:40;;;;;;;10.10;9.30;;;18.80;99.90;;;;;;5021142;28;20562;-60
2021/07/13 04:44:07;;;;;;;11.43;10.33;;;18.80;99.90;;;;;;5034028;28;20470;-59
2021/07/13 04:46:34;;;;;;;11.47;10.33;;;18.70;99.90;;;;;;5040205;28;20525;-59
2021/07/13 04:49:01;;;;;;;11.40;10.50;;;18.70;99.90;;;;;;5040319;28;20510;-60
2021/07/13 04:51:28;;;;;;;13.00;11.90;;;18.70;99.90;;;;;;5034210;28;20520;-60
2021/07/13 04:53:56;;;;;;;14.60;13.20;;;18.70;99.90;;;;;;5021371;28;20880;-59
2021/07/13 04:56:23;;;;;;;13.50;12.40;;;18.70;99.90;;;;;;5021374;28;20541;-59
2021/07/13 04:58:50;;;;;;;15.80;14.50;;;18.70;99.90;;;;;;5020853;28;20503;-59
2021/07/13 05:01:17;;;;;;;14.73;13.50;;;18.70;99.90;;;;;;5039208;28;20498;-59
2021/07/13 05:03:44;;;;;;;15.47;14.00;;;18.70;99.90;;;;;;5026216;28;20839;-58
2021/07/13 05:06:11;;;;;;;16.60;15.00;;;18.80;99.90;;;;;;5019437;28;20529;-60
2021/07/13 05:08:44;;;;;;;15.43;13.83;;;18.80;99.90;;;;;;5020488;28;20514;-60
2021/07/13 05:11:13;;;;;;;16.53;14.77;;;18.80;99.90;;;;;;5020874;28;20998;-60
2021/07/13 05:13:40;;;;;;;17.17;15.60;;;18.80;99.90;;;;;;5020257;28;20468;-60
2021/07/13 05:16:07;;;;;;;17.47;16.00;;;18.90;99.90;;;;;;5020632;28;20471;-60
2021/07/13 05:18:35;;;;;;;17.27;15.77;;;18.90;99.90;;;;;;5020898;28;20478;-60
2021/07/13 05:21:05;;;;;;;16.77;15.17;;;18.90;99.90;;;;;;5020961;28;20495;-60
2021/07/13 06:00:56;;;;;;;16.23;14.73;;;18.90;99.90;;;;;;4205417;22;20480;-60
2021/07/13 06:03:23;;;;;;;17.50;15.90;;;18.90;99.90;;;;;;5003349;28;20549;-60
2021/07/13 06:05:50;;;;;;;17.20;15.60;;;18.90;99.90;;;;;;5008507;28;20476;-60
2021/07/13 06:46:06;;;;;;;19.60;17.83;;;18.90;99.90;;;;;;2651187;22;20493;-61
2021/07/13 06:48:38;;;;;;;19.70;18.00;;;18.90;99.90;;;;;;4999760;28;20810;-61
2021/07/13 06:51:08;;;;;;;18.93;17.17;;;18.80;99.90;;;;;;5010143;28;20522;-61
2021/07/13 06:53:35;;;;;;;19.70;18.00;;;18.80;99.90;;;;;;5019009;28;20583;-61
2021/07/13 06:56:02;;;;;;;20.27;18.40;;;18.90;99.90;;;;;;5017538;28;20467;-61
2021/07/13 06:58:31;;;;;;;21.87;19.87;;;18.80;99.90;;;;;;5018508;28;20468;-62
2021/07/13 07:00:58;;;;;;;21.47;19.40;;;18.90;99.90;;;;;;5009948;28;20514;-62
2021/07/13 07:03:28;;;;;;;23.23;20.80;;;18.90;99.90;;;;;;5003504;28;20468;-62
2021/07/13 07:05:58;;;;;;;21.60;19.30;;;18.90;99.90;;;;;;5007095;28;20473;-61
2021/07/13 07:08:27;;;;;;;22.40;20.20;;;19.00;99.90;;;;;;5011502;28;20526;-61
2021/07/13 07:10:54;;;;;;;24.27;21.73;;;18.90;99.90;;;;;;5017356;28;20765;-61
2021/07/13 07:13:21;;;;;;;24.63;21.87;;;18.90;99.90;;;;;;5015568;28;20468;-61
2021/07/13 07:15:50;;;;;;;23.80;21.57;;;18.90;99.90;;;;;;5018378;28;20514;-61
2021/07/13 07:18:17;;;;;;;25.53;23.03;;;18.90;99.90;;;;;;5017854;28;20530;-61
2021/07/13 07:20:45;;;;;;;27.87;25.13;;;18.80;99.90;;;;;;5018182;28;20495;-63
2021/07/13 07:23:14;;;;;;;26.73;24.17;;;18.80;99.90;;;;;;5017882;28;20464;-63
2021/07/13 07:25:43;;;;;;;26.47;24.03;;;18.70;99.90;;;;;;5009178;28;20903;-63
2021/07/13 07:28:13;;;;;;;29.97;27.00;;;18.70;99.90;;;;;;5010832;28;20487;-62
2021/07/13 07:30:40;;;;;;;28.40;25.70;;;18.70;99.90;;;;;;5009386;28;21039;-62
2021/07/13 07:33:07;;;;;;;28.23;25.50;;;18.60;99.90;;;;;;5009324;28;20485;-62
2021/07/13 07:35:37;;;;;;;28.80;26.30;;;18.70;99.90;;;;;;5005344;28;20461;-62
2021/07/13 07:38:06;;;;;;;28.13;25.53;;;18.70;99.90;;;;;;5000617;28;20536;-62
2021/07/13 07:40:33;;;;;;;27.37;24.77;;;18.60;99.90;;;;;;5003705;28;20527;-62
2021/07/13 07:43:03;;;;;;;27.97;25.47;;;18.50;99.90;;;;;;5002179;28;20530;-62
2021/07/13 07:45:30;;;;;;;29.97;27.17;;;18.50;99.90;;;;;;5015496;28;20526;-63
2021/07/13 07:47:57;;;;;;;26.70;24.00;;;18.40;99.90;;;;;;5018169;28;20962;-63
2021/07/13 07:50:26;;;;;;;29.83;26.70;;;18.60;99.90;;;;;;5008556;28;20469;-62
2021/07/13 07:52:53;;;;;;;28.17;25.47;;;18.60;99.90;;;;;;5008411;28;20471;-62
2021/07/13 07:55:26;;;;;;;28.53;25.80;;;18.70;99.90;;;;;;5009492;28;20770;-62
2021/07/13 07:57:53;;;;;;;27.80;25.10;;;18.80;99.90;;;;;;5006914;28;20473;-62
2021/07/13 08:00:21;;;;;;;28.87;26.17;;;18.80;99.90;;;;;;5010377;28;20931;-63
2021/07/13 08:02:48;;;;;;;28.40;25.60;;;18.90;99.90;;;;;;5003435;28;20469;-63
2021/07/13 08:05:17;;;;;;;29.57;26.73;;;19.00;99.90;;;;;;5004259;28;20909;-62
2021/07/13 08:07:45;;;;;;;28.67;26.07;;;19.10;99.90;;;;;;5003932;28;20476;-60
2021/07/13 08:10:15;;;;;;;26.50;23.90;;;19.20;99.90;;;;;;5016290;28;20468;-60
2021/07/13 08:12:44;;;;;;;27.37;24.87;;;19.30;99.90;;;;;;5014401;28;20456;-60
2021/07/13 08:15:14;;;;;;;27.40;24.73;;;19.20;99.90;;;;;;5014233;28;20518;-59
2021/07/13 08:17:43;;;;;;;27.80;25.00;;;19.50;99.90;;;;;;5017617;28;20464;-59
2021/07/13 08:20:13;;;;;;;27.90;25.40;;;19.60;99.90;;;;;;5017249;28;20491;-59
2021/07/13 08:22:43;;;;;;;27.23;24.47;;;19.60;99.90;;;;;;5005471;28;20531;-59
2021/07/13 08:25:13;;;;;;;27.33;24.93;;;19.70;99.90;;;;;;5009285;28;20498;-59
2021/07/13 08:27:42;;;;;;;25.47;22.93;;;19.90;99.90;;;;;;5008271;28;20525;-59
2021/07/13 08:30:11;;;;;;;28.60;26.00;;;19.60;99.90;;;;;;5009803;28;21037;-59
2021/07/13 08:32:39;;;;;;;25.17;22.77;;;19.70;99.90;;;;;;5017343;28;20471;-60
2021/07/13 08:35:13;;;;;;;26.37;23.53;;;19.50;99.90;;;;;;5017249;28;20475;-60
2021/07/13 08:37:42;;;;;;;25.70;23.40;;;19.40;99.90;;;;;;5016955;28;20965;-60
2021/07/13 09:15:31;;;;;;;17.40;16.00;;;22.30;99.90;;;;;;5527094;23;20460;31
2021/07/13 09:17:58;;;;;;;18.10;16.43;;;22.50;99.90;;;;;;4976933;28;20469;-54
2021/07/13 09:20:27;;;;;;;18.23;16.53;;;22.30;99.90;;;;;;4981473;28;20433;-56
2021/07/13 09:22:59;;;;;;;20.73;18.70;;;22.40;99.90;;;;;;4980455;28;20465;-52
2021/07/13 09:25:36;;;;;;;18.27;16.67;;;22.40;99.90;;;;;;4973738;28;20564;-56
2021/07/13 09:28:18;;;;;;;18.53;16.93;;;22.10;99.90;;;;;;4980320;28;20948;-56
2021/07/13 09:30:49;;;;;;;18.23;16.73;;;22.40;99.90;;;;;;4975699;28;20914;-55
2021/07/13 09:33:26;;;;;;;19.67;17.90;;;22.50;99.90;;;;;;4981557;28;20473;-55
2021/07/13 09:36:15;;;;;;;19.40;17.60;;;22.20;99.90;;;;;;4978538;28;20471;-55
2021/07/13 09:38:52;;;;;;;18.97;17.33;;;22.20;99.90;;;;;;4967421;28;20477;-54
2021/07/13 09:41:22;;;;;;;16.77;15.30;;;22.70;99.90;;;;;;4975479;28;20492;-55
2021/07/13 09:43:54;;;;;;;16.80;15.50;;;23.10;99.90;;;;;;4975271;28;20470;-54
2021/07/13 09:46:36;;;;;;;16.17;14.87;;;23.20;99.90;;;;;;4980158;28;20524;-56
2021/07/13 09:49:07;;;;;;;16.57;15.20;;;23.30;99.90;;;;;;4980759;28;20827;-56
2021/07/13 09:51:35;;;;;;;16.83;15.40;;;23.30;99.90;;;;;;4980396;28;20465;-56
2021/07/13 09:54:02;;;;;;;16.57;15.17;;;23.00;99.90;;;;;;4974579;28;20521;-56
2021/07/13 09:56:39;;;;;;;18.13;16.53;;;22.80;99.90;;;;;;4974044;28;20469;-53
2021/07/13 09:59:06;;;;;;;18.70;17.10;;;22.70;99.90;;;;;;4978974;28;20964;-56
2021/07/13 10:01:35;;;;;;;17.90;16.40;;;22.50;99.90;;;;;;4980086;28;21062;-54
2021/07/13 10:04:05;;;;;;;19.03;17.23;;;22.40;99.90;;;;;;4969288;28;20536;-56
2021/07/13 10:06:33;;;;;;;19.50;17.87;;;22.20;99.90;;;;;;4975435;28;20544;-56
2021/07/13 10:09:11;;;;;;;18.93;17.33;;;22.10;99.90;;;;;;4981240;28;20466;-55
2021/07/13 10:11:40;;;;;;;19.47;17.57;;;21.90;99.90;;;;;;4980883;28;20462;-54
2021/07/13 10:14:07;;;;;;;21.07;19.37;;;21.90;99.90;;;;;;4979879;28;20524;-56
2021/07/13 10:16:36;;;;;;;20.10;18.60;;;21.80;99.90;;;;;;4989329;28;20496;-56
2021/07/13 10:19:07;;;;;;;21.33;19.47;;;22.10;99.90;;;;;;5000797;28;20564;-47
2021/07/13 10:21:38;;;;;;;22.37;20.47;;;22.20;99.90;;;;;;5000716;28;20500;-52
2021/07/13 10:24:07;;;;;;;24.50;22.40;;;22.30;99.90;;;;;;5002767;28;20469;-52
2021/07/13 10:26:49;;;;;;;24.93;22.80;;;22.20;99.90;;;;;;5001231;28;20572;-57
2021/07/13 10:29:37;;;;;;;24.97;22.77;;;22.30;99.90;;;;;;5001713;28;20864;-59
2021/07/13 10:32:08;;;;;;;24.83;22.83;;;22.50;99.90;;;;;;4989902;28;20543;-58
2021/07/13 10:34:48;;;;;;;25.87;23.77;;;22.60;99.90;;;;;;4999402;28;20964;-56
2021/07/13 10:37:26;;;;;;;26.57;24.47;;;22.70;99.90;;;;;;4999182;28;20504;-56
2021/07/13 10:39:57;;;;;;;25.57;23.37;;;22.70;99.90;;;;;;5000065;28;20523;-57
2021/07/13 10:42:48;;;;;;;25.63;23.33;;;22.70;99.90;;;;;;4999439;28;21025;-51
2021/07/13 10:45:18;;;;;;;26.77;24.67;;;22.70;99.90;;;;;;5000785;28;20538;-54
2021/07/13 10:48:10;;;;;;;27.30;25.00;;;22.50;99.90;;;;;;5002068;28;20538;-57
2021/07/13 10:50:51;;;;;;;27.00;24.77;;;22.50;99.90;;;;;;4998370;28;20440;-55
2021/07/13 10:53:38;;;;;;;;;;;;;;;;;;;;;
2021/07/13 10:56:17;;;;;;;28.53;26.37;;;22.30;99.90;;;;;;5002864;28;20469;-56
2021/07/13 10:58:59;;;;;;;28.23;25.83;;;22.40;99.90;;;;;;4997974;28;20786;-55
2021/07/13 11:01:35;;;;;;;25.10;23.20;;;22.50;99.90;;;;;;5000604;28;20502;-56
2021/07/13 11:04:40;;;;;;;27.67;24.90;;;22.50;99.90;;;;;;4992738;28;20575;-55
2021/07/13 11:07:12;;;;;;;28.03;25.70;;;22.50;99.90;;;;;;5000511;28;20770;-52
2021/07/13 11:09:42;;;;;;;25.90;23.80;;;22.40;99.90;;;;;;4998124;28;20469;-53
2021/07/13 11:12:19;;;;;;;26.07;23.97;;;22.40;99.90;;;;;;4998891;28;20911;-51
2021/07/13 11:14:57;;;;;;;24.63;22.60;;;22.50;99.90;;;;;;4994544;28;20559;-52
2021/07/13 11:17:29;;;;;;;25.40;23.30;;;22.50;99.90;;;;;;4988561;28;20467;-53
2021/07/13 11:20:02;;;;;;;23.37;21.53;;;22.70;99.90;;;;;;4987484;28;20472;-55
2021/07/13 11:22:31;;;;;;;22.90;21.13;;;22.80;99.90;;;;;;4998234;28;20496;-53
2021/07/13 12:01:56;;;;;;;11.97;11.00;;;24.50;99.90;;;;;;5477279;22;20496;-59
2021/07/13 12:04:25;;;;;;;11.17;10.27;;;24.80;99.90;;;;;;4999613;28;20480;-58
2021/07/13 12:06:53;;;;;;;9.73;9.03;;;24.80;99.90;;;;;;5025681;28;20475;-60
2021/07/13 12:09:27;;;;;;;11.27;10.40;;;25.00;99.90;;;;;;5036241;28;20466;-57
2021/07/13 12:11:56;;;;;;;10.43;9.63;;;25.40;99.90;;;;;;5037220;28;20462;-56
2021/07/13 12:14:26;;;;;;;10.67;9.63;;;25.70;99.90;;;;;;5035958;28;20463;-55
2021/07/13 12:16:57;;;;;;;9.93;9.23;;;25.80;99.90;;;;;;5036990;28;20912;-57
2021/07/13 12:19:26;;;;;;;9.90;9.10;;;25.70;99.90;;;;;;5036721;28;20467;-54
2021/07/13 12:21:55;;;;;;;9.53;8.80;;;25.70;99.90;;;;;;5035315;28;20507;-57
2021/07/13 12:24:33;;;;;;;9.37;8.67;;;25.60;99.90;;;;;;5037279;28;20467;-53
2021/07/13 12:27:01;;;;;;;9.90;9.00;;;25.60;99.90;;;;;;5036780;28;20813;-58
2021/07/13 12:29:37;;;;;;;9.33;8.67;;;25.60;99.90;;;;;;5035759;28;20475;-58
2021/07/13 12:32:15;;;;;;;9.80;9.10;;;25.40;99.90;;;;;;5037367;28;20462;-55
2021/07/13 12:34:43;;;;;;;9.63;8.93;;;25.00;99.90;;;;;;5035871;28;20520;-58
2021/07/13 12:37:19;;;;;;;10.40;9.50;;;25.20;99.90;;;;;;5036402;28;20492;-56
2021/07/13 12:39:49;;;;;;;9.30;8.60;;;24.90;99.90;;;;;;5035577;28;20516;-57
2021/07/13 12:42:21;;;;;;;8.80;8.10;;;24.80;99.90;;;;;;5027052;28;20479;-56
2021/07/13 12:44:50;;;;;;;9.77;8.93;;;24.60;99.90;;;;;;5035285;28;20783;-54
2021/07/13 12:47:33;;;;;;;10.03;9.23;;;24.50;99.90;;;;;;5035968;28;20850;-55
2021/07/13 12:50:15;;;;;;;10.10;9.27;;;24.30;99.90;;;;;;5028348;28;20520;-56
2021/07/13 12:52:45;;;;;;;9.20;8.50;;;24.20;99.90;;;;;;5038596;28;20470;-57
2021/07/13 12:55:15;;;;;;;9.60;8.90;;;24.00;99.90;;;;;;5040378;28;20474;-54
2021/07/13 12:57:49;;;;;;;10.20;9.50;;;24.00;99.90;;;;;;5040282;28;20524;-57
2021/07/13 13:00:19;;;;;;;9.80;9.10;;;23.80;99.90;;;;;;5039984;28;20471;-54
2021/07/13 13:03:01;;;;;;;10.60;9.80;;;23.70;99.90;;;;;;5036758;28;20492;-58
2021/07/13 13:05:30;;;;;;;9.70;8.90;;;23.50;99.90;;;;;;5030198;28;20840;-57
2021/07/13 13:08:05;;;;;;;10.33;9.53;;;23.40;99.90;;;;;;5031993;28;20459;-58
2021/07/13 13:10:36;;;;;;;9.57;8.87;;;23.30;99.90;;;;;;5039131;28;20469;-58
2021/07/13 13:13:06;;;;;;;10.77;9.10;;;23.40;99.90;;;;;;5027719;28;20460;-56
2021/07/13 13:15:34;;;;;;;9.20;8.50;;;23.40;99.90;;;;;;5028104;28;20468;-57
2021/07/13 13:18:08;;;;;;;10.10;9.23;;;23.40;99.90;;;;;;5040346;28;20524;-54
2021/07/13 13:20:36;;;;;;;9.17;8.37;;;23.30;99.90;;;;;;5031498;28;20463;-57
2021/07/13 13:23:14;;;;;;;10.13;9.33;;;23.40;99.90;;;;;;5027409;28;20496;-56
2021/07/13 13:25:42;;;;;;;10.10;9.37;;;23.50;99.90;;;;;;5029348;28;20475;-50
2021/07/13 13:28:13;;;;;;;11.80;10.90;;;23.40;99.90;;;;;;5031401;28;20479;-54
2021/07/13 13:30:44;;;;;;;10.23;9.43;;;23.60;99.90;;;;;;5030471;28;20470;-56
2021/07/13 13:33:14;;;;;;;10.53;9.73;;;23.80;99.90;;;;;;5028116;28;20559;-55
2021/07/13 14:14:14;;;;;;;13.27;12.10;;;23.10;99.90;;;;;;4122034;23;20492;-55
2021/07/13 14:16:41;;;;;;;12.13;10.90;;;23.10;99.90;;;;;;5018973;28;20467;-50
2021/07/13 14:19:09;;;;;;;10.27;9.47;;;23.10;99.90;;;;;;5018826;28;20892;-50
2021/07/13 14:21:39;;;;;;;11.20;10.23;;;23.00;99.90;;;;;;5017938;28;20460;-51
2021/07/13 14:24:07;;;;;;;11.60;10.73;;;22.80;99.90;;;;;;5018862;28;20470;-50
2021/07/13 14:26:37;;;;;;;11.90;10.60;;;22.70;99.90;;;;;;5018626;28;20471;-51
2021/07/13 14:29:04;;;;;;;9.37;8.57;;;22.50;99.90;;;;;;5018636;28;20792;-50
2021/07/13 14:31:35;;;;;;;10.63;9.83;;;22.50;99.90;;;;;;5018804;28;20767;-50
2021/07/13 14:34:02;;;;;;;10.13;9.23;;;22.60;99.90;;;;;;5018710;28;20438;-54
2021/07/13 14:36:31;;;;;;;11.37;10.17;;;22.70;99.90;;;;;;5018535;28;20828;-53
2021/07/13 14:38:58;;;;;;;10.43;9.43;;;22.70;99.90;;;;;;5017940;28;20534;-50
2021/07/13 14:41:25;;;;;;;10.80;9.90;;;22.70;99.90;;;;;;5018331;28;20468;-53
2021/07/13 14:43:52;;;;;;;12.20;11.20;;;22.80;99.90;;;;;;5018262;28;20503;-53
2021/07/13 15:24:38;;;;;;;13.20;12.00;;;23.20;99.90;;;;;;3412088;22;20489;-55
2021/07/13 15:27:06;;;;;;;13.30;12.10;;;23.30;99.90;;;;;;4999074;28;20465;-55
2021/07/13 15:29:32;;;;;;;13.87;12.77;;;23.40;99.90;;;;;;4998385;28;20468;-51
2021/07/13 15:32:00;;;;;;;14.97;13.50;;;23.40;99.90;;;;;;4998169;28;20519;-50
2021/07/13 15:34:30;;;;;;;13.40;12.40;;;23.20;99.90;;;;;;4994018;28;20472;-50
2021/07/13 15:36:57;;;;;;;14.70;13.40;;;23.00;99.90;;;;;;4993379;28;20435;-52
2021/07/13 15:39:26;;;;;;;14.40;13.00;;;22.90;99.90;;;;;;5013111;28;20526;-50
2021/07/13 15:41:56;;;;;;;16.03;14.67;;;22.70;99.90;;;;;;5015621;28;20498;-48
2021/07/13 15:44:23;;;;;;;14.70;13.50;;;22.70;99.90;;;;;;5011283;28;20454;-49
2021/07/13 15:46:52;;;;;;;15.63;14.23;;;22.70;99.90;;;;;;5006717;28;20830;-50
2021/07/13 15:49:19;;;;;;;15.10;13.90;;;22.60;99.90;;;;;;5016719;28;20475;-53
2021/07/13 15:51:49;;;;;;;14.53;13.33;;;22.70;99.90;;;;;;5016712;28;20479;-55
2021/07/13 15:54:17;;;;;;;15.77;14.27;;;22.70;99.90;;;;;;5010945;28;20915;-50
2021/07/13 15:56:46;;;;;;;15.73;14.33;;;22.70;99.90;;;;;;5010334;28;20523;-54
2021/07/13 15:59:14;;;;;;;15.13;13.73;;;22.80;99.90;;;;;;5010133;28;20476;-54
2021/07/13 16:01:45;;;;;;;15.90;14.60;;;22.90;99.90;;;;;;5017420;28;20471;-55
2021/07/13 16:04:15;;;;;;;16.97;15.57;;;22.90;99.90;;;;;;5004829;28;20508;-48
2021/07/13 16:39:32;;;;;;;15.80;14.40;;;23.40;99.90;;;;;;5144938;23;20493;-55
2021/07/13 16:42:03;;;;;;;13.77;12.67;;;23.40;99.90;;;;;;4997508;28;20528;-54
2021/07/13 16:44:31;;;;;;;14.73;13.63;;;23.30;99.90;;;;;;4996962;28;21161;-54
2021/07/13 16:47:00;;;;;;;16.27;14.80;;;23.30;99.90;;;;;;4997367;28;20839;-54
2021/07/13 16:49:27;;;;;;;15.67;14.23;;;23.30;99.90;;;;;;4997396;28;20469;-55
2021/07/13 16:51:54;;;;;;;17.00;15.40;;;23.10;99.90;;;;;;4996905;28;20572;-56
2021/07/13 16:54:21;;;;;;;16.77;15.43;;;22.90;99.90;;;;;;4996874;28;20473;-56
2021/07/13 17:36:18;;;;;;;28.27;26.03;;;23.10;99.90;;;;;;4722503;23;20507;-55
2021/07/13 17:38:45;;;;;;;27.57;25.23;;;22.80;99.90;;;;;;4974362;28;20769;-57
2021/07/13 17:41:12;;;;;;;28.40;26.17;;;22.70;99.90;;;;;;4981298;28;20524;-58
2021/07/13 17:43:41;;;;;;;28.43;25.97;;;22.60;99.90;;;;;;4980911;28;20560;-55
2021/07/13 17:46:11;;;;;;;28.77;26.37;;;22.50;99.90;;;;;;4980993;28;20525;-58
2021/07/13 17:48:38;;;;;;;31.40;28.90;;;22.40;99.90;;;;;;4981283;28;20542;-57
2021/07/13 17:51:07;;;;;;;29.43;27.13;;;22.20;99.90;;;;;;4980718;28;20826;-58
2021/07/13 17:53:36;;;;;;;30.33;27.63;;;22.20;99.90;;;;;;4980698;28;20466;-58
2021/07/13 17:56:05;;;;;;;33.47;30.50;;;22.10;99.90;;;;;;4980619;28;20532;-58
2021/07/13 18:35:52;;;;;;;43.43;39.63;;;21.40;99.90;;;;;;5501397;23;20929;31
2021/07/13 18:38:21;;;;;;;45.37;41.33;;;21.30;99.90;;;;;;4969458;28;20455;-51
2021/07/13 18:40:50;;;;;;;48.73;44.43;;;21.30;99.90;;;;;;4973777;28;20502;-56
2021/07/13 18:43:17;;;;;;;48.97;44.60;;;21.40;99.90;;;;;;4978675;28;20497;-56
2021/07/13 18:45:44;;;;;;;50.73;46.33;;;21.30;99.90;;;;;;4972607;28;20474;-57
2021/07/13 20:02:07;;;;;;;61.07;54.90;;;20.70;99.90;;;;;;5488556;22;20473;-63
2021/07/13 21:14:50;;;;;;;48.83;44.63;;;20.30;99.90;;;;;;5591568;22;20479;-63
2021/07/13 21:17:18;;;;;;;45.07;41.20;;;20.20;99.90;;;;;;5047833;23;20507;-64
2021/07/13 21:19:48;;;;;;;43.53;39.80;;;20.20;99.90;;;;;;5001020;28;20896;-64
2021/07/13 21:59:07;;;;;;;39.77;36.50;;;19.90;99.90;;;;;;5274982;22;20750;-64
2021/07/13 23:13:05;;;;;;;46.60;42.63;;;19.50;99.90;;;;;;3657816;22;20497;-65
2021/07/13 23:15:37;;;;;;;47.57;43.17;;;19.50;99.90;;;;;;4980166;28;20470;-64